Time;durP1;ratioP1;P1;durP2;ratioP2;P2;SDS_P1;SDS_P2;PMS_P1;PMS_P2;Temp;Humidity;BMP_temperature;BMP_pressure;BME280_temperature;BME280_humidity;BME280_pressure;Samples;Min_cycle;Max_cycle;Signal;HPM_P1;HPM_P2
2023/06/14 00:00:19;;;;;;;10.00;6.57;;;18.00;53.10;;;;;;6095219;23;20014;-79
2023/06/14 00:02:45;;;;;;;7.25;6.05;;;18.00;53.90;;;;;;6095321;23;20014;-79
2023/06/14 00:05:12;;;;;;;7.43;6.45;;;18.00;55.70;;;;;;6094374;23;20348;-79
2023/06/14 00:07:42;;;;;;;7.35;6.13;;;17.80;54.90;;;;;;6119399;23;20080;-80
2023/06/14 00:10:08;;;;;;;8.23;6.72;;;17.90;54.70;;;;;;6095884;23;20071;-79
2023/06/14 00:12:33;;;;;;;9.75;6.80;;;17.80;55.90;;;;;;6120072;23;20037;-79
2023/06/14 00:15:01;;;;;;;11.90;6.65;;;17.80;55.00;;;;;;6119189;23;20009;-79
2023/06/14 00:17:29;;;;;;;10.82;6.53;;;17.60;54.00;;;;;;6119831;23;20466;-78
2023/06/14 00:19:56;;;;;;;8.77;6.47;;;17.50;56.30;;;;;;6094786;23;20021;-79
2023/06/14 00:22:24;;;;;;;7.40;6.53;;;17.50;55.50;;;;;;6094911;23;20064;-79
2023/06/14 00:24:50;;;;;;;9.27;6.97;;;17.50;56.40;;;;;;6120337;23;20009;-79
2023/06/14 00:27:15;;;;;;;9.80;6.50;;;17.50;55.40;;;;;;6119033;23;20009;-79
2023/06/14 00:29:41;;;;;;;8.85;6.55;;;17.40;56.80;;;;;;6119182;23;20436;-79
2023/06/14 00:32:07;;;;;;;10.00;6.88;;;17.50;54.90;;;;;;6120173;23;20590;-79
2023/06/14 00:34:33;;;;;;;7.55;6.38;;;17.30;55.10;;;;;;6095602;23;20014;-78
2023/06/14 00:36:59;;;;;;;7.97;6.35;;;17.30;55.20;;;;;;6094087;23;20064;-80
2023/06/14 00:39:24;;;;;;;7.63;6.28;;;17.30;55.20;;;;;;6119364;23;20444;-78
2023/06/14 00:41:50;;;;;;;7.15;6.45;;;17.20;56.40;;;;;;6093178;23;20022;-79
2023/06/14 00:44:16;;;;;;;6.38;5.78;;;17.20;55.30;;;;;;6095013;23;20088;-78
2023/06/14 00:46:41;;;;;;;9.52;6.50;;;17.10;55.90;;;;;;6118561;23;20072;-78
2023/06/14 00:49:07;;;;;;;7.93;6.20;;;17.00;55.70;;;;;;6095414;23;20009;-79
2023/06/14 00:51:32;;;;;;;9.88;6.50;;;17.00;56.00;;;;;;6094102;23;20072;-78
2023/06/14 00:53:58;;;;;;;8.48;6.63;;;16.90;56.60;;;;;;6118161;23;20025;-78
2023/06/14 00:56:24;;;;;;;13.70;6.40;;;16.80;56.80;;;;;;6093305;23;20101;-78
2023/06/14 00:58:50;;;;;;;10.25;6.03;;;16.80;56.90;;;;;;6093076;23;20045;-78
2023/06/14 01:01:16;;;;;;;9.80;6.65;;;16.80;56.60;;;;;;6094352;23;20015;-79
2023/06/14 01:03:42;;;;;;;10.50;6.32;;;16.80;57.10;;;;;;6119462;23;20052;-80
2023/06/14 01:06:29;;;;;;;9.55;5.97;;;16.80;57.00;;;;;;6096324;23;20400;-80
2023/06/14 01:09:03;;;;;;;9.55;6.60;;;16.80;57.00;;;;;;6121526;23;20009;-80
2023/06/14 01:11:37;;;;;;;10.75;6.50;;;16.70;57.90;;;;;;6096074;23;20024;-80
2023/06/14 01:14:03;;;;;;;9.23;6.63;;;16.80;58.60;;;;;;6118635;23;20088;-79
2023/06/14 01:16:29;;;;;;;11.38;6.57;;;16.70;58.20;;;;;;6094158;23;20049;-79
2023/06/14 01:18:56;;;;;;;7.28;6.38;;;16.70;59.20;;;;;;6094788;23;20100;-80
2023/06/14 01:21:23;;;;;;;7.07;6.35;;;16.60;57.10;;;;;;6119094;23;20400;-79
2023/06/14 01:23:52;;;;;;;11.60;6.57;;;16.50;57.60;;;;;;6118491;23;20055;-79
2023/06/14 01:26:19;;;;;;;6.90;6.20;;;16.40;57.70;;;;;;6094417;23;20032;-79
2023/06/14 01:28:48;;;;;;;8.25;5.72;;;16.70;58.00;;;;;;6094188;23;20010;-79
2023/06/14 01:31:21;;;;;;;8.15;6.97;;;16.70;56.20;;;;;;6093241;23;20014;-79
2023/06/14 01:33:47;;;;;;;7.85;6.18;;;16.90;55.30;;;;;;6095005;23;20020;-79
2023/06/14 01:36:13;;;;;;;10.30;7.15;;;16.90;54.00;;;;;;6118056;23;20013;-79
2023/06/14 01:38:38;;;;;;;8.35;7.25;;;16.80;55.60;;;;;;6094479;23;20014;-79
2023/06/14 01:41:04;;;;;;;8.90;6.78;;;16.80;59.20;;;;;;6094137;23;20018;-79
2023/06/14 01:43:30;;;;;;;7.13;6.18;;;16.40;60.60;;;;;;6093588;23;20009;-79
2023/06/14 01:45:56;;;;;;;8.77;6.22;;;16.30;59.20;;;;;;6070233;23;20017;-79
2023/06/14 01:48:22;;;;;;;9.35;6.28;;;16.20;60.20;;;;;;6117840;23;20032;-79
2023/06/14 01:50:49;;;;;;;8.40;6.28;;;16.10;59.60;;;;;;6117691;23;20395;-79
2023/06/14 01:53:15;;;;;;;11.75;5.78;;;16.10;61.30;;;;;;6118920;23;20017;-79
2023/06/14 01:55:43;;;;;;;9.45;6.07;;;16.10;59.90;;;;;;6118329;23;20400;-80
2023/06/14 01:58:09;;;;;;;12.68;6.60;;;16.10;58.80;;;;;;6117555;23;20020;-79
2023/06/14 02:00:35;;;;;;;9.32;6.90;;;16.00;59.50;;;;;;6119262;23;20389;-79
2023/06/14 02:03:01;;;;;;;11.73;6.28;;;16.00;59.40;;;;;;6094337;23;20045;-79
2023/06/14 02:05:26;;;;;;;10.23;6.78;;;16.10;57.80;;;;;;6093499;23;20009;-79
2023/06/14 02:07:53;;;;;;;10.38;6.13;;;15.90;58.80;;;;;;6093805;23;20021;-79
2023/06/14 02:10:18;;;;;;;6.50;5.78;;;15.80;59.70;;;;;;6093795;23;20440;-79
2023/06/14 02:12:44;;;;;;;10.68;6.10;;;15.80;62.30;;;;;;6094055;23;20017;-79
2023/06/14 02:15:16;;;;;;;8.82;5.80;;;15.70;62.40;;;;;;6092941;23;20444;-79
2023/06/14 02:17:46;;;;;;;8.60;5.93;;;15.60;61.40;;;;;;6094921;23;20041;-79
2023/06/14 02:20:12;;;;;;;8.18;5.75;;;15.60;62.00;;;;;;6094639;23;20022;-80
2023/06/14 02:22:38;;;;;;;10.27;5.97;;;15.60;62.00;;;;;;6119539;23;20010;-79
2023/06/14 02:25:04;;;;;;;7.95;5.90;;;15.50;62.70;;;;;;6093170;23;20076;-79
2023/06/14 02:27:29;;;;;;;10.30;5.38;;;15.50;60.60;;;;;;6118529;23;20076;-79
2023/06/14 02:29:55;;;;;;;9.25;5.72;;;15.40;59.70;;;;;;6118746;23;20010;-79
2023/06/14 02:32:20;;;;;;;10.48;5.85;;;15.30;60.50;;;;;;6119053;23;20005;-81
2023/06/14 02:34:49;;;;;;;7.13;6.00;;;15.20;62.80;;;;;;6093987;23;20016;-79
2023/06/14 02:37:18;;;;;;;10.88;6.28;;;15.10;62.70;;;;;;6094018;23;20690;-79
2023/06/14 02:39:43;;;;;;;10.43;5.40;;;15.20;60.40;;;;;;6093288;23;20009;-79
2023/06/14 02:42:10;;;;;;;6.22;5.30;;;15.30;61.80;;;;;;6119172;23;20073;-79
2023/06/14 02:44:35;;;;;;;8.27;5.70;;;15.10;62.50;;;;;;6094785;23;20382;-79
2023/06/14 02:47:01;;;;;;;9.15;5.85;;;15.00;61.10;;;;;;6117716;23;20010;-80
2023/06/14 02:49:27;;;;;;;7.20;5.38;;;15.00;61.80;;;;;;6118783;23;20827;-80
2023/06/14 02:51:52;;;;;;;9.85;6.18;;;15.00;61.30;;;;;;6093263;23;20017;-79
2023/06/14 02:54:18;;;;;;;7.70;6.20;;;15.00;61.90;;;;;;6118473;23;20080;-78
2023/06/14 02:56:43;;;;;;;10.70;6.05;;;15.00;64.70;;;;;;6120097;23;20009;-78
2023/06/14 02:59:09;;;;;;;10.40;5.75;;;15.00;63.90;;;;;;6120377;23;20459;-77
2023/06/14 03:01:35;;;;;;;10.10;6.60;;;14.80;63.70;;;;;;6095405;23;20021;-77
2023/06/14 03:04:03;;;;;;;6.22;5.57;;;14.90;64.10;;;;;;6120261;23;20022;-78
2023/06/14 03:06:32;;;;;;;7.15;5.85;;;14.90;64.00;;;;;;6095656;23;20333;-78
2023/06/14 03:09:04;;;;;;;6.28;5.65;;;14.90;64.00;;;;;;6095373;23;20516;-78
2023/06/14 03:11:30;;;;;;;13.00;6.32;;;14.80;62.80;;;;;;6096067;23;20017;-77
2023/06/14 03:13:56;;;;;;;7.43;5.70;;;14.90;63.90;;;;;;6120076;23;20188;-78
2023/06/14 03:16:24;;;;;;;10.77;6.15;;;14.80;64.20;;;;;;6095958;23;20477;-77
2023/06/14 03:18:52;;;;;;;9.93;6.00;;;14.90;65.80;;;;;;6097283;23;20018;-77
2023/06/14 03:21:20;;;;;;;10.88;5.82;;;14.80;66.30;;;;;;6121832;23;20025;-77
2023/06/14 03:23:46;;;;;;;8.73;5.45;;;14.70;66.60;;;;;;6097539;23;20028;-78
2023/06/14 03:26:17;;;;;;;8.35;6.28;;;14.90;60.90;;;;;;6097174;23;20456;-77
2023/06/14 03:28:43;;;;;;;6.78;5.55;;;14.90;63.20;;;;;;6098300;23;20022;-78
2023/06/14 03:31:09;;;;;;;8.15;5.72;;;14.80;65.50;;;;;;6122050;23;20018;-78
2023/06/14 03:33:35;;;;;;;8.48;5.80;;;14.90;62.60;;;;;;6097067;23;20368;-78
2023/06/14 03:36:01;;;;;;;6.32;5.30;;;14.80;63.10;;;;;;6121293;23;20024;-78
2023/06/14 03:38:27;;;;;;;6.53;5.55;;;14.70;61.90;;;;;;6120861;23;20095;-78
2023/06/14 03:40:52;;;;;;;6.82;5.20;;;14.70;64.00;;;;;;6121330;23;20018;-79
2023/06/14 03:43:18;;;;;;;7.55;5.47;;;14.60;64.90;;;;;;6097089;23;20107;-78
2023/06/14 03:45:43;;;;;;;8.23;5.43;;;14.50;66.00;;;;;;6096580;23;20013;-78
2023/06/14 03:48:09;;;;;;;9.52;5.68;;;14.50;63.30;;;;;;6121563;23;20009;-79
2023/06/14 03:50:37;;;;;;;6.20;5.55;;;14.60;64.80;;;;;;6096132;23;20037;-77
2023/06/14 03:53:03;;;;;;;9.65;5.43;;;14.40;65.90;;;;;;6096780;23;20058;-77
2023/06/14 03:55:31;;;;;;;9.77;5.90;;;14.40;66.80;;;;;;6082774;23;20010;-77
2023/06/14 03:57:56;;;;;;;7.28;5.40;;;14.40;64.00;;;;;;6097430;23;20068;-77
2023/06/14 04:00:22;;;;;;;9.00;5.15;;;14.40;63.80;;;;;;6095764;23;20449;-78
2023/06/14 04:02:48;;;;;;;7.63;5.05;;;14.50;63.70;;;;;;6096754;23;20475;-77
2023/06/14 04:05:14;;;;;;;7.30;5.65;;;14.50;64.10;;;;;;6096909;23;20487;-77
2023/06/14 04:07:44;;;;;;;9.95;5.65;;;14.60;63.70;;;;;;6107445;23;20029;-78
2023/06/14 04:10:13;;;;;;;7.88;5.93;;;14.60;63.80;;;;;;6098761;23;20013;-78
2023/06/14 04:12:39;;;;;;;7.72;5.10;;;14.80;63.80;;;;;;6096814;23;20009;-77
2023/06/14 04:15:08;;;;;;;8.40;5.15;;;15.00;64.00;;;;;;6120351;23;20016;-77
2023/06/14 04:17:34;;;;;;;6.78;5.07;;;15.30;63.30;;;;;;6095785;23;20008;-78
2023/06/14 04:20:00;;;;;;;7.47;4.68;;;15.40;63.20;;;;;;6120928;23;20101;-78
2023/06/14 04:22:28;;;;;;;8.68;5.53;;;15.50;62.80;;;;;;6097013;23;20010;-77
2023/06/14 04:24:56;;;;;;;10.50;4.90;;;15.70;62.60;;;;;;6121245;23;20085;-78
2023/06/14 04:27:25;;;;;;;6.68;4.57;;;15.90;62.60;;;;;;6120741;23;20444;-77
2023/06/14 04:29:56;;;;;;;7.82;5.30;;;16.10;61.90;;;;;;6120864;23;20013;-77
2023/06/14 04:32:29;;;;;;;8.95;5.00;;;16.40;62.00;;;;;;6120832;23;20010;-77
2023/06/14 04:34:59;;;;;;;11.07;5.03;;;16.70;62.00;;;;;;6120713;23;20009;-76
2023/06/14 04:37:25;;;;;;;5.57;5.00;;;16.80;61.30;;;;;;6120946;23;20531;-77
2023/06/14 04:39:51;;;;;;;9.05;4.75;;;17.00;60.70;;;;;;6096896;23;20020;-76
2023/06/14 04:42:20;;;;;;;10.65;5.80;;;17.10;60.50;;;;;;6095808;23;20017;-78
2023/06/14 04:44:47;;;;;;;7.10;5.10;;;17.30;60.70;;;;;;6096547;23;20351;-78
2023/06/14 04:47:14;;;;;;;10.05;5.25;;;17.50;60.40;;;;;;6095921;23;20040;-79
2023/06/14 04:49:40;;;;;;;5.75;5.15;;;17.60;59.70;;;;;;6095131;23;20005;-79
2023/06/14 04:52:06;;;;;;;8.77;4.63;;;17.90;60.80;;;;;;6119591;23;20020;-78
2023/06/14 04:54:33;;;;;;;6.45;4.65;;;18.10;60.40;;;;;;6093714;23;20689;-76
2023/06/14 04:56:59;;;;;;;7.32;4.53;;;18.20;60.10;;;;;;6094129;23;20624;-76
2023/06/14 04:59:25;;;;;;;10.85;5.15;;;18.50;60.00;;;;;;6095353;23;20020;-77
2023/06/14 05:01:51;;;;;;;8.02;5.07;;;18.70;59.80;;;;;;6118313;23;20042;-77
2023/06/14 05:04:17;;;;;;;7.00;4.20;;;18.90;59.50;;;;;;6093777;23;20144;-77
2023/06/14 05:06:48;;;;;;;12.88;5.10;;;19.10;59.10;;;;;;6119267;23;20056;-77
2023/06/14 05:09:14;;;;;;;6.43;4.00;;;19.30;58.80;;;;;;6094632;23;20017;-77
2023/06/14 05:11:39;;;;;;;7.47;4.20;;;19.50;58.50;;;;;;6095056;23;20013;-76
2023/06/14 05:14:06;;;;;;;9.68;4.80;;;19.80;57.80;;;;;;6093729;23;20616;-76
2023/06/14 05:16:31;;;;;;;6.07;4.45;;;20.00;58.30;;;;;;6094260;23;20475;-76
2023/06/14 05:18:57;;;;;;;6.97;4.53;;;20.30;58.20;;;;;;6117787;23;20017;-77
2023/06/14 05:21:23;;;;;;;9.48;4.63;;;20.50;57.80;;;;;;6094296;23;20352;-77
2023/06/14 05:23:50;;;;;;;6.53;4.03;;;20.70;57.60;;;;;;6093902;23;20013;-77
2023/06/14 05:26:16;;;;;;;6.45;4.43;;;20.90;57.20;;;;;;6118089;23;20383;-77
2023/06/14 05:28:41;;;;;;;5.28;3.95;;;21.10;57.10;;;;;;6119415;23;20124;-77
2023/06/14 05:31:07;;;;;;;7.47;4.18;;;21.30;56.40;;;;;;6118615;23;20013;-77
2023/06/14 05:33:32;;;;;;;7.05;3.78;;;21.50;56.70;;;;;;6093812;23;20057;-77
2023/06/14 05:35:58;;;;;;;9.35;5.43;;;21.70;56.40;;;;;;6118045;23;20017;-77
2023/06/14 05:38:23;;;;;;;12.23;3.97;;;22.00;56.30;;;;;;6092844;23;20013;-77
2023/06/14 05:40:49;;;;;;;4.50;3.60;;;22.20;55.90;;;;;;6118189;23;20026;-77
2023/06/14 05:43:15;;;;;;;4.15;3.35;;;22.50;55.90;;;;;;6118499;23;20009;-76
2023/06/14 05:45:40;;;;;;;7.50;3.80;;;22.70;55.50;;;;;;6119001;23;20056;-76
2023/06/14 05:48:06;;;;;;;6.30;3.83;;;22.90;55.40;;;;;;6116636;23;20014;-76
2023/06/14 05:50:31;;;;;;;5.28;3.70;;;23.10;55.10;;;;;;6117703;23;20009;-76
2023/06/14 05:52:57;;;;;;;5.28;3.88;;;23.40;54.70;;;;;;6093539;23;20570;-76
2023/06/14 05:55:23;;;;;;;9.10;3.78;;;23.60;54.00;;;;;;6093779;23;20032;-76
2023/06/14 05:57:48;;;;;;;7.85;3.58;;;23.80;53.60;;;;;;6060299;23;20017;-77
2023/06/14 06:00:15;;;;;;;7.55;3.97;;;24.10;52.80;;;;;;6068486;23;20024;-76
2023/06/14 06:02:44;;;;;;;6.00;3.47;;;24.30;51.50;;;;;;6089481;23;20384;-76
2023/06/14 06:05:12;;;;;;;9.32;3.45;;;24.40;51.90;;;;;;6118551;23;20037;-79
2023/06/14 06:07:39;;;;;;;4.00;3.30;;;24.50;51.10;;;;;;6091464;23;20072;-78
2023/06/14 06:10:05;;;;;;;8.82;3.45;;;24.60;51.10;;;;;;6092615;23;20029;-79
2023/06/14 06:12:32;;;;;;;6.25;3.75;;;24.70;51.10;;;;;;6116576;23;20379;-78
2023/06/14 06:14:58;;;;;;;6.55;3.50;;;24.90;51.10;;;;;;6114369;23;20041;-77
2023/06/14 06:17:25;;;;;;;9.75;3.13;;;25.10;50.10;;;;;;6093367;23;20006;-79
2023/06/14 06:19:50;;;;;;;11.70;3.22;;;25.30;50.10;;;;;;6117331;23;20010;-78
2023/06/14 06:22:16;;;;;;;10.70;3.17;;;25.30;50.00;;;;;;6093606;23;20013;-78
2023/06/14 06:24:42;;;;;;;7.45;3.08;;;25.40;50.10;;;;;;6094851;23;20010;-78
2023/06/14 06:27:08;;;;;;;7.63;3.30;;;25.60;49.60;;;;;;6092935;23;20153;-78
2023/06/14 06:29:34;;;;;;;6.85;2.97;;;25.80;49.20;;;;;;6118114;23;20026;-79
2023/06/14 06:32:00;;;;;;;7.22;2.90;;;25.90;49.20;;;;;;6093818;23;20513;-79
2023/06/14 06:34:26;;;;;;;7.00;2.38;;;26.10;48.70;;;;;;6118464;23;20048;-80
2023/06/14 06:36:51;;;;;;;7.72;2.80;;;26.20;48.50;;;;;;6093326;23;20017;-80
2023/06/14 06:39:17;;;;;;;4.18;2.67;;;26.50;47.40;;;;;;6092620;23;20022;-80
2023/06/14 06:41:42;;;;;;;6.13;2.33;;;26.60;47.50;;;;;;6118781;23;20021;-80
2023/06/14 06:44:10;;;;;;;2.50;2.30;;;26.60;47.40;;;;;;6092892;23;20009;-80
2023/06/14 06:46:39;;;;;;;3.60;1.77;;;26.80;46.80;;;;;;6081131;23;20002;-80
2023/06/14 06:49:05;;;;;;;3.92;2.72;;;27.10;45.60;;;;;;6118943;23;20344;-78
2023/06/14 06:51:31;;;;;;;3.38;1.98;;;27.00;46.40;;;;;;6094763;23;20009;-80
2023/06/14 06:53:57;;;;;;;3.70;1.88;;;26.90;45.40;;;;;;6095139;23;20364;-80
2023/06/14 06:56:23;;;;;;;4.93;2.00;;;27.00;45.80;;;;;;6094865;23;20016;-80
2023/06/14 06:58:50;;;;;;;3.72;2.17;;;27.20;45.00;;;;;;6095880;23;20040;-79
2023/06/14 07:01:16;;;;;;;4.50;1.98;;;27.30;45.10;;;;;;6095117;23;20017;-80
2023/06/14 07:03:41;;;;;;;2.35;1.90;;;27.50;45.20;;;;;;6096015;23;20013;-80
2023/06/14 07:06:07;;;;;;;2.72;1.98;;;27.50;44.90;;;;;;6118909;23;20014;-80
2023/06/14 07:08:32;;;;;;;4.05;2.20;;;27.60;45.00;;;;;;6119432;23;20352;-80
2023/06/14 07:10:58;;;;;;;4.47;1.80;;;27.90;44.00;;;;;;6095612;23;20029;-80
2023/06/14 07:13:23;;;;;;;7.13;2.00;;;28.00;43.80;;;;;;6119479;23;20013;-80
2023/06/14 07:15:49;;;;;;;2.55;1.80;;;28.00;43.40;;;;;;6119156;23;20339;-80
2023/06/14 07:18:15;;;;;;;4.00;2.17;;;28.20;43.20;;;;;;6094457;23;20412;-80
2023/06/14 07:20:42;;;;;;;3.33;2.28;;;28.20;43.40;;;;;;6095792;23;20391;-80
2023/06/14 07:23:08;;;;;;;4.15;2.25;;;28.20;43.70;;;;;;6095673;23;20009;-80
2023/06/14 07:25:33;;;;;;;7.75;2.05;;;28.20;42.30;;;;;;6119700;23;20016;-80
2023/06/14 07:27:59;;;;;;;3.33;1.70;;;28.40;42.20;;;;;;6119223;23;20036;-78
2023/06/14 07:30:26;;;;;;;5.20;1.65;;;28.50;41.70;;;;;;6120249;23;20005;-78
2023/06/14 07:32:53;;;;;;;3.60;1.88;;;28.50;42.30;;;;;;6094918;23;20048;-80
2023/06/14 07:35:18;;;;;;;4.50;1.80;;;28.50;42.20;;;;;;6119574;23;20117;-78
2023/06/14 07:37:45;;;;;;;2.60;1.60;;;28.50;42.40;;;;;;6120023;23;20037;-80
2023/06/14 07:40:11;;;;;;;7.40;2.00;;;28.70;41.50;;;;;;6095105;23;20010;-79
2023/06/14 07:42:36;;;;;;;5.00;2.15;;;28.80;41.40;;;;;;6093625;23;20452;-80
2023/06/14 07:45:06;;;;;;;4.10;1.45;;;28.80;41.90;;;;;;6117351;23;20629;-80
2023/06/14 07:47:32;;;;;;;4.15;1.67;;;28.80;40.80;;;;;;6094767;23;20009;-80
2023/06/14 07:49:57;;;;;;;4.32;1.85;;;28.90;39.80;;;;;;6121342;23;20009;-80
2023/06/14 07:52:23;;;;;;;5.05;2.17;;;28.70;40.10;;;;;;6096727;23;20068;-80
2023/06/14 07:54:49;;;;;;;7.53;2.75;;;28.70;41.00;;;;;;6096882;23;20439;-80
2023/06/14 07:57:14;;;;;;;6.65;1.80;;;28.70;41.60;;;;;;6096938;23;20081;-80
2023/06/14 07:59:40;;;;;;;7.22;2.25;;;28.80;41.60;;;;;;6096686;23;20005;-80
2023/06/14 08:02:06;;;;;;;3.95;2.13;;;28.90;41.10;;;;;;6120786;23;20029;-78
2023/06/14 08:04:32;;;;;;;2.30;1.73;;;28.80;40.90;;;;;;6096123;23;20045;-78
2023/06/14 08:06:58;;;;;;;6.85;2.17;;;28.90;41.00;;;;;;6096379;23;20021;-78
2023/06/14 08:09:24;;;;;;;8.98;1.95;;;29.00;41.30;;;;;;6096381;23;20018;-78
2023/06/14 08:11:50;;;;;;;4.03;2.25;;;29.10;41.20;;;;;;6096834;23;20113;-78
2023/06/14 08:14:16;;;;;;;2.45;1.85;;;29.20;41.00;;;;;;6096193;23;20444;-78
2023/06/14 08:16:41;;;;;;;9.60;2.13;;;29.30;41.50;;;;;;6096931;23;20391;-78
2023/06/14 08:19:07;;;;;;;3.58;2.00;;;29.30;41.20;;;;;;6095967;23;20022;-78
2023/06/14 08:21:33;;;;;;;6.07;2.33;;;29.40;40.50;;;;;;6096338;23;20087;-79
2023/06/14 08:23:59;;;;;;;3.10;2.00;;;29.60;39.90;;;;;;6121055;23;20112;-79
2023/06/14 08:26:28;;;;;;;5.30;1.70;;;29.60;40.10;;;;;;6096092;23;20464;-79
2023/06/14 08:28:54;;;;;;;3.13;1.80;;;29.60;40.60;;;;;;6097020;23;20352;-79
2023/06/14 08:31:20;;;;;;;4.85;2.25;;;29.50;40.60;;;;;;6120378;23;20010;-79
2023/06/14 08:33:46;;;;;;;4.30;2.10;;;29.60;40.80;;;;;;6121044;23;20017;-80
2023/06/14 08:36:14;;;;;;;4.10;1.83;;;29.70;40.30;;;;;;6120464;23;20014;-79
2023/06/14 08:38:40;;;;;;;6.47;2.03;;;29.90;40.40;;;;;;6121080;23;20028;-79
2023/06/14 08:41:08;;;;;;;7.57;1.80;;;29.80;40.50;;;;;;6120711;23;20436;-79
2023/06/14 08:43:34;;;;;;;9.75;1.90;;;29.90;39.80;;;;;;6095027;23;20009;-79
2023/06/14 08:46:01;;;;;;;3.40;2.28;;;30.00;39.40;;;;;;6120426;23;20033;-79
2023/06/14 08:48:27;;;;;;;5.38;2.13;;;30.00;39.80;;;;;;6094526;23;20010;-80
2023/06/14 08:51:01;;;;;;;3.22;1.95;;;30.20;39.60;;;;;;6106011;23;20018;-80
2023/06/14 08:53:33;;;;;;;3.55;1.75;;;30.20;39.00;;;;;;6071061;23;20436;-80
2023/06/14 08:56:04;;;;;;;2.55;1.88;;;30.30;38.90;;;;;;6120054;23;20743;-80
2023/06/14 08:58:31;;;;;;;3.83;1.83;;;30.30;38.80;;;;;;6096117;23;20013;-80
2023/06/14 09:00:58;;;;;;;3.20;1.73;;;30.40;38.60;;;;;;6095809;23;20068;-80
2023/06/14 09:03:29;;;;;;;3.38;1.83;;;30.50;38.20;;;;;;6120810;23;20352;-79
2023/06/14 09:06:00;;;;;;;7.57;2.17;;;30.60;37.50;;;;;;6093317;23;20499;-80
2023/06/14 09:08:31;;;;;;;3.30;1.80;;;30.50;37.60;;;;;;6096494;23;20456;-79
2023/06/14 09:10:57;;;;;;;1.95;1.75;;;30.50;37.30;;;;;;6096115;23;20467;-80
2023/06/14 09:13:23;;;;;;;5.60;1.63;;;30.50;37.60;;;;;;6096464;23;20021;-80
2023/06/14 09:15:49;;;;;;;2.83;1.55;;;30.50;38.00;;;;;;6096241;23;20068;-79
2023/06/14 09:18:15;;;;;;;1.92;1.63;;;30.50;36.70;;;;;;6121586;23;20329;-80
2023/06/14 09:20:41;;;;;;;5.32;1.80;;;30.40;37.20;;;;;;6096208;23;20024;-80
2023/06/14 09:23:07;;;;;;;4.30;1.75;;;30.40;37.30;;;;;;6096073;23;20095;-80
2023/06/14 09:25:41;;;;;;;1.98;1.55;;;30.50;37.10;;;;;;6119593;23;20439;-80
2023/06/14 09:28:07;;;;;;;3.75;1.50;;;30.50;36.80;;;;;;6096253;23;20100;-80
2023/06/14 09:30:33;;;;;;;2.33;1.23;;;30.50;37.00;;;;;;6095488;23;20005;-80
2023/06/14 09:32:59;;;;;;;2.85;1.30;;;30.40;37.90;;;;;;6096356;23;20013;-81
2023/06/14 09:35:25;;;;;;;5.03;2.03;;;30.60;36.00;;;;;;6120592;23;20380;-81
2023/06/14 09:37:50;;;;;;;3.55;1.55;;;30.40;36.10;;;;;;6094284;23;20037;-81
2023/06/14 09:40:20;;;;;;;2.65;1.60;;;30.50;35.70;;;;;;6096545;23;20010;-81
2023/06/14 09:42:46;;;;;;;4.63;1.30;;;30.20;36.30;;;;;;6095746;23;20088;-82
2023/06/14 09:45:13;;;;;;;4.35;1.40;;;30.20;36.50;;;;;;6093192;23;20009;-81
2023/06/14 09:47:38;;;;;;;1.88;1.20;;;30.20;36.10;;;;;;6096383;23;20510;-82
2023/06/14 09:50:04;;;;;;;1.85;1.40;;;30.30;37.00;;;;;;6094704;23;20018;-84
2023/06/14 09:52:30;;;;;;;3.42;1.10;;;30.50;36.60;;;;;;6095616;23;20006;-82
2023/06/14 09:54:56;;;;;;;4.03;1.65;;;30.50;36.80;;;;;;6095202;23;20079;-82
2023/06/14 09:57:22;;;;;;;4.10;1.38;;;30.50;36.20;;;;;;6120367;23;20344;-82
2023/06/14 09:59:48;;;;;;;2.00;1.30;;;30.60;36.40;;;;;;6095794;23;20478;-82
2023/06/14 10:02:34;;;;;;;1.58;1.10;;;30.60;36.80;;;;;;6096665;23;20092;-84
2023/06/14 10:05:08;;;;;;;2.33;1.02;;;30.60;36.20;;;;;;6095685;23;20040;-83
2023/06/14 10:07:48;;;;;;;2.65;1.13;;;30.60;36.90;;;;;;6094213;23;20451;-83
2023/06/14 10:10:13;;;;;;;1.35;1.15;;;30.80;37.10;;;;;;6118685;23;20352;-83
2023/06/14 10:12:39;;;;;;;1.25;0.75;;;30.90;36.50;;;;;;6119396;23;20021;-82
2023/06/14 10:15:09;;;;;;;3.72;1.10;;;30.90;36.40;;;;;;6096272;23;20464;-82
2023/06/14 10:17:44;;;;;;;3.90;0.90;;;30.90;36.40;;;;;;6094295;23;20096;-83
2023/06/14 10:20:12;;;;;;;;;;;31.00;36.50;;;;;;6096820;23;20448;-83
2023/06/14 10:22:43;;;;;;;3.92;1.35;;;31.10;35.80;;;;;;6119946;23;19913;-83
2023/06/14 10:25:13;;;;;;;2.88;1.30;;;31.10;36.40;;;;;;6096632;23;20356;-83
2023/06/14 10:27:39;;;;;;;2.47;0.95;;;31.20;36.10;;;;;;6097646;23;20067;-83
2023/06/14 10:30:07;;;;;;;4.97;1.45;;;31.30;36.40;;;;;;6097771;23;20522;-84
2023/06/14 10:32:33;;;;;;;9.10;2.08;;;31.30;36.40;;;;;;6097602;23;20009;-82
2023/06/14 10:35:08;;;;;;;1.55;1.45;;;31.50;36.20;;;;;;6122584;23;20013;-83
2023/06/14 10:37:35;;;;;;;1.90;1.17;;;31.60;36.40;;;;;;6096992;23;20018;-83
2023/06/14 10:40:00;;;;;;;1.52;1.42;;;31.60;36.20;;;;;;6097723;23;20017;-83
2023/06/14 10:42:32;;;;;;;3.88;1.27;;;31.50;36.60;;;;;;6097368;23;20017;-83
2023/06/14 10:45:00;;;;;;;4.72;1.30;;;31.70;37.20;;;;;;6097290;23;20523;-83
2023/06/14 10:47:34;;;;;;;2.72;1.20;;;32.00;36.10;;;;;;6121659;23;20014;-83
2023/06/14 10:50:07;;;;;;;2.55;1.25;;;32.10;36.50;;;;;;6098055;23;20024;-83
2023/06/14 10:52:35;;;;;;;8.43;1.80;;;32.10;35.60;;;;;;6122068;23;20025;-83
2023/06/14 10:55:14;;;;;;;7.60;1.63;;;32.10;35.90;;;;;;6097577;23;20123;-84
2023/06/14 10:57:55;;;;;;;2.65;1.58;;;32.10;35.80;;;;;;6098553;23;20020;-84
2023/06/14 11:00:24;;;;;;;5.15;1.60;;;32.20;36.00;;;;;;6095933;23;20014;-82
2023/06/14 11:03:03;;;;;;;8.32;1.75;;;32.20;36.30;;;;;;6093493;23;20092;-82
2023/06/14 11:05:28;;;;;;;4.05;1.52;;;32.30;36.20;;;;;;6143347;23;20450;-83
2023/06/14 11:08:09;;;;;;;1.45;1.35;;;32.30;36.00;;;;;;6116479;23;20017;-83
2023/06/14 11:10:38;;;;;;;3.15;1.48;;;32.50;36.30;;;;;;6115518;23;20014;-84
2023/06/14 11:13:04;;;;;;;2.80;1.13;;;32.50;35.90;;;;;;6116887;23;20013;-83
2023/06/14 11:15:33;;;;;;;2.45;1.23;;;32.50;36.10;;;;;;6092367;23;20623;-83
2023/06/14 11:18:03;;;;;;;1.50;1.30;;;32.50;35.90;;;;;;6117308;23;20569;-82
2023/06/14 11:20:31;;;;;;;4.60;1.30;;;32.60;35.20;;;;;;6092062;23;20028;-82
2023/06/14 11:22:57;;;;;;;1.50;1.25;;;32.60;35.50;;;;;;6113950;23;20450;-84
2023/06/14 11:25:23;;;;;;;2.63;1.40;;;32.70;35.80;;;;;;6116819;23;20010;-82
2023/06/14 11:27:51;;;;;;;1.85;1.30;;;32.70;35.20;;;;;;6117908;23;20695;-83
2023/06/14 11:30:17;;;;;;;3.05;1.02;;;32.70;35.60;;;;;;6091182;23;20033;-83
2023/06/14 11:32:46;;;;;;;3.85;1.15;;;32.80;36.20;;;;;;6115082;23;20093;-84
2023/06/14 11:35:12;;;;;;;6.85;1.30;;;32.90;36.40;;;;;;6092108;23;20101;-84
2023/06/14 11:37:38;;;;;;;3.65;1.60;;;33.00;36.40;;;;;;6091157;23;20092;-83
2023/06/14 11:40:08;;;;;;;2.45;1.17;;;33.10;36.10;;;;;;6091704;23;20021;-83
2023/06/14 11:42:33;;;;;;;3.22;1.33;;;33.00;35.60;;;;;;6094847;23;20017;-83
2023/06/14 11:44:59;;;;;;;1.77;1.20;;;33.10;35.50;;;;;;6095161;23;20018;-83
2023/06/14 11:47:31;;;;;;;6.22;1.45;;;33.10;36.40;;;;;;6119367;23;20013;-82
2023/06/14 11:49:58;;;;;;;4.57;1.60;;;33.20;35.70;;;;;;6119116;23;20739;-82
2023/06/14 11:52:24;;;;;;;2.05;1.08;;;33.30;36.00;;;;;;6116116;23;20013;-81
2023/06/14 11:54:50;;;;;;;3.30;1.30;;;33.30;36.20;;;;;;6098043;23;20444;-82
2023/06/14 11:57:17;;;;;;;3.60;1.60;;;33.60;35.60;;;;;;6096942;23;20343;-83
2023/06/14 11:59:44;;;;;;;3.08;1.10;;;33.80;35.40;;;;;;6096609;23;20013;-83
2023/06/14 12:02:10;;;;;;;2.95;1.35;;;33.90;35.50;;;;;;6097517;23;20699;-83
2023/06/14 12:04:35;;;;;;;5.80;1.88;;;34.00;34.70;;;;;;6121331;23;20029;-82
2023/06/14 12:07:17;;;;;;;3.35;1.33;;;34.00;35.50;;;;;;6120438;23;20013;-83
2023/06/14 12:09:57;;;;;;;1.52;1.08;;;34.10;34.40;;;;;;6095815;23;20526;-82
2023/06/14 12:12:26;;;;;;;1.48;1.30;;;34.30;34.90;;;;;;6119014;23;20448;-82
2023/06/14 12:14:52;;;;;;;4.68;1.42;;;34.50;34.90;;;;;;6070409;23;20464;-82
2023/06/14 12:17:18;;;;;;;3.13;1.42;;;34.40;35.10;;;;;;6094057;23;20076;-82
2023/06/14 12:19:45;;;;;;;4.13;1.80;;;34.50;34.70;;;;;;6093762;23;20080;-82
2023/06/14 12:22:11;;;;;;;2.08;1.73;;;34.50;33.70;;;;;;6094449;23;20411;-82
2023/06/14 12:24:37;;;;;;;6.47;1.50;;;34.50;33.30;;;;;;6095524;23;20433;-82
2023/06/14 12:27:03;;;;;;;3.58;1.70;;;34.40;34.30;;;;;;6094477;23;20029;-82
2023/06/14 12:29:30;;;;;;;7.63;1.70;;;34.50;34.20;;;;;;6095311;23;20117;-82
2023/06/14 12:31:56;;;;;;;3.70;1.60;;;34.60;34.60;;;;;;6095133;23;20029;-81
2023/06/14 12:34:28;;;;;;;5.50;1.60;;;34.60;34.00;;;;;;6095966;23;20014;-82
2023/06/14 12:36:54;;;;;;;1.70;1.60;;;34.70;34.30;;;;;;6095176;23;20013;-83
2023/06/14 12:39:20;;;;;;;3.25;1.80;;;34.50;33.80;;;;;;6093155;23;20623;-81
2023/06/14 12:41:46;;;;;;;2.10;1.60;;;34.70;33.60;;;;;;6094674;23;20041;-81
2023/06/14 12:44:12;;;;;;;3.72;1.70;;;34.80;34.30;;;;;;6118862;23;20028;-82